West Bromwich, United Kingdom
Current Conditions -  °F | °C
As of 4:20 PM on Wednesday 28 Jan 2015 (Local Time) from EGBB Reporting Station
Scattered Clouds Scattered Clouds  
Wind Chill: -1°   Ceiling: Unl
Heat Index:   Visibility: 6mi
Dew Point: -2°   Wind: 10mph
Humidity: 70%   Direction: 270°W
Pressure: 29.56"   Gusts: NA
Location:  52.52°N, 2°W
Report Text: EGBB 281620Z 27009KT 250V310 9999 FEW005 SCT019 03/M02 Q1001
Loading
Personal Weather Stations






























Interactive Weather Map New forecast layout! Learn more

10-Day Weather Forecast

Advertisements
Track Severe Weather on mobile